Time;durP1;ratioP1;P1;durP2;ratioP2;P2;SDS_P1;SDS_P2;PMS_P1;PMS_P2;Temp;Humidity;BMP_temperature;BMP_pressure;BME280_temperature;BME280_humidity;BME280_pressure;Samples;Min_cycle;Max_cycle;Signal;HPM_P1;HPM_P2
2022/09/25 00:00:33;;;;;;;26.63;18.75;;;;;;;14.07;66.74;99545.94;10400572;28;20405;-86
2022/09/25 00:05:36;;;;;;;37.65;22.25;;;;;;;14.08;66.90;99556.34;10418566;28;20438;-86
2022/09/25 00:10:42;;;;;;;43.65;22.73;;;;;;;14.19;66.95;99552.84;10415759;28;20056;-82
2022/09/25 00:15:52;;;;;;;39.78;21.27;;;;;;;14.25;66.92;99558.44;10397567;28;20061;-82
2022/09/25 00:21:00;;;;;;;34.20;21.08;;;;;;;14.15;66.82;99552.25;10428475;28;20044;-83
2022/09/25 00:26:07;;;;;;;33.67;21.67;;;;;;;14.07;66.83;99549.41;10414241;28;20044;-83
2022/09/25 00:31:10;;;;;;;53.92;25.08;;;;;;;14.17;66.74;99554.75;10429054;28;20498;-82
2022/09/25 00:36:11;;;;;;;43.38;23.95;;;;;;;14.20;66.68;99555.38;10413205;28;20056;-82
2022/09/25 00:41:19;;;;;;;43.88;23.55;;;;;;;14.20;66.73;99550.09;10400070;28;20053;-83
2022/09/25 00:46:41;;;;;;;32.45;21.02;;;;;;;14.09;66.74;99550.13;10395799;28;20522;-82
2022/09/25 00:51:51;;;;;;;53.75;23.95;;;;;;;14.14;66.91;99545.34;10397607;28;20404;-82
2022/09/25 00:56:57;;;;;;;42.90;22.15;;;;;;;14.13;66.77;99546.28;10411223;28;20556;-82
2022/09/25 01:01:59;;;;;;;45.00;22.92;;;;;;;14.12;66.64;99539.38;10414231;28;20483;-82
2022/09/25 01:07:01;;;;;;;48.67;24.05;;;;;;;14.06;66.79;99537.25;10411273;28;20072;-83
2022/09/25 01:12:03;;;;;;;36.97;20.95;;;;;;;14.06;66.75;99542.50;10397966;28;20057;-82
2022/09/25 01:17:33;;;;;;;44.47;21.70;;;;;;;13.97;67.15;99543.22;10428569;28;20049;-82
2022/09/25 01:23:00;;;;;;;70.32;26.88;;;;;;;13.85;67.42;99532.84;10430465;28;20128;-82
2022/09/25 01:28:37;;;;;;;56.42;26.60;;;;;;;13.87;67.53;99529.13;10412025;28;20519;-82
2022/09/25 01:33:45;;;;;;;82.53;31.65;;;;;;;13.83;67.64;99527.72;10434111;28;20045;-83
2022/09/25 01:38:52;;;;;;;43.55;22.73;;;;;;;13.90;67.37;99523.66;10431461;28;20500;-82
2022/09/25 01:44:08;;;;;;;38.35;20.83;;;;;;;13.95;67.17;99525.88;10435420;28;20049;-82
2022/09/25 01:49:32;;;;;;;50.80;26.00;;;;;;;13.86;67.34;99522.19;10419889;28;21080;-82
2022/09/25 01:54:44;;;;;;;34.70;21.25;;;;;;;13.74;67.73;99516.13;10422683;28;20048;-82
2022/09/25 02:00:01;;;;;;;46.88;26.17;;;;;;;13.66;68.12;99515.06;10404764;28;20055;-82
2022/09/25 02:05:21;;;;;;;40.08;23.52;;;;;;;13.74;68.21;99512.66;10424182;28;20049;-82
2022/09/25 02:10:30;;;;;;;54.58;27.38;;;;;;;13.78;68.02;99514.91;10426489;28;20052;-83
2022/09/25 02:15:36;;;;;;;45.97;26.97;;;;;;;13.83;67.67;99517.19;10426628;28;20060;-82
2022/09/25 02:20:41;;;;;;;59.55;31.08;;;;;;;13.92;67.57;99523.50;10442260;28;20045;-82
2022/09/25 02:25:47;;;;;;;60.90;32.63;;;;;;;13.78;68.02;99522.81;10407983;28;20059;-82
2022/09/25 02:30:53;;;;;;;51.88;28.13;;;;;;;13.74;68.09;99520.53;10407511;28;20503;-83
2022/09/25 02:35:54;;;;;;;30.00;22.17;;;;;;;13.68;68.14;99515.75;10406148;28;20053;-83
2022/09/25 02:41:18;;;;;;;34.45;23.70;;;;;;;13.63;68.61;99517.94;10411363;28;20502;-82
2022/09/25 02:46:54;;;;;;;33.78;25.08;;;;;;;13.64;68.39;99530.09;10404455;28;20419;-82
2022/09/25 02:52:15;;;;;;;42.47;28.13;;;;;;;13.70;68.60;99529.63;10397391;28;20057;-82
2022/09/25 02:57:35;;;;;;;50.85;30.75;;;;;;;13.74;68.42;99529.25;10408406;28;20418;-82
2022/09/25 03:02:38;;;;;;;75.47;37.00;;;;;;;13.64;68.49;99530.09;10406418;28;20064;-82
2022/09/25 03:13:30;;;;;;;47.20;31.70;;;;;;;13.44;68.83;99538.72;10418891;28;20403;-82
2022/09/25 03:18:32;;;;;;;47.97;32.88;;;;;;;13.47;68.70;99535.84;10415001;28;20060;-83
2022/09/25 03:23:33;;;;;;;47.90;32.80;;;;;;;13.46;68.61;99535.00;10434000;28;20529;-82
2022/09/25 03:28:35;;;;;;;55.10;34.80;;;;;;;13.51;68.85;99535.50;10417136;28;20057;-81
2022/09/25 03:33:40;;;;;;;45.42;30.83;;;;;;;13.64;68.21;99525.69;10398970;28;20049;-82
2022/09/25 03:38:42;;;;;;;62.13;35.05;;;;;;;13.71;68.12;99528.69;10419394;28;20045;-79
2022/09/25 03:43:46;;;;;;;42.05;30.02;;;;;;;13.76;68.19;99529.13;10417778;28;20045;-79
2022/09/25 03:48:48;;;;;;;76.15;40.88;;;;;;;13.82;68.20;99528.66;10401091;28;20068;-79
2022/09/25 03:53:50;;;;;;;53.53;33.20;;;;;;;13.89;67.71;99529.00;10432004;28;20053;-79
2022/09/25 03:58:53;;;;;;;87.38;42.63;;;;;;;13.90;67.86;99526.28;10419013;28;20053;-79
2022/09/25 04:03:55;;;;;;;50.35;32.42;;;;;;;13.90;67.79;99521.03;10430967;28;20057;-79
2022/09/25 04:08:57;;;;;;;75.22;39.97;;;;;;;13.83;67.50;99522.44;10399780;28;20060;-79
2022/09/25 04:14:26;;;;;;;49.75;32.88;;;;;;;13.71;67.79;99511.13;10412403;28;20510;-80
2022/09/25 04:19:28;;;;;;;77.63;39.22;;;;;;;13.76;67.94;99508.09;10415919;28;20056;-80
2022/09/25 04:24:48;;;;;;;54.58;35.70;;;;;;;13.83;67.78;99513.72;10397376;28;20077;-79
2022/09/25 04:29:49;;;;;;;79.65;40.25;;;;;;;13.87;67.80;99512.53;10415194;28;20510;-79
2022/09/25 04:34:51;;;;;;;66.60;37.67;;;;;;;13.79;67.93;99515.75;10395539;28;20053;-79
2022/09/25 04:39:57;;;;;;;53.42;33.47;;;;;;;13.62;68.07;99516.25;10399244;28;20053;-79
2022/09/25 04:44:58;;;;;;;49.50;32.38;;;;;;;13.51;67.90;99517.13;10431200;28;20056;-80
2022/09/25 04:50:00;;;;;;;57.40;34.83;;;;;;;13.44;68.45;99522.94;10416255;28;20059;-79
2022/09/25 04:55:03;;;;;;;42.58;27.55;;;;;;;13.54;68.03;99531.78;10396340;28;20566;-79
2022/09/25 05:00:06;;;;;;;54.17;33.70;;;;;;;13.53;67.87;99535.38;10413972;28;20431;-79
2022/09/25 05:05:08;;;;;;;56.33;32.42;;;;;;;13.48;68.10;99535.72;10394673;28;20506;-79
2022/09/25 05:10:09;;;;;;;51.08;32.22;;;;;;;13.44;68.17;99536.09;10413617;28;20063;-80
2022/09/25 05:15:11;;;;;;;25.40;19.55;;;;;;;13.48;67.77;99537.50;10413319;28;20041;-79
2022/09/25 05:20:13;;;;;;;39.90;26.20;;;;;;;13.46;67.95;99532.38;10408510;28;20056;-80
2022/09/25 05:25:16;;;;;;;47.22;29.88;;;;;;;13.46;68.00;99531.53;10391086;28;20503;-79
2022/09/25 05:30:17;;;;;;;55.72;32.88;;;;;;;13.51;68.19;99534.66;10413109;28;20060;-79
2022/09/25 05:35:21;;;;;;;40.53;27.35;;;;;;;13.56;67.96;99537.75;10423279;28;20729;-79
2022/09/25 05:40:24;;;;;;;44.80;28.42;;;;;;;13.65;67.90;99537.88;10395350;28;20057;-79
2022/09/25 05:45:25;;;;;;;43.40;28.83;;;;;;;13.71;67.70;99534.78;10395436;28;20089;-80
2022/09/25 05:50:27;;;;;;;57.53;32.58;;;;;;;13.79;67.75;99536.78;10389574;28;20053;-79
2022/09/25 05:55:29;;;;;;;60.22;33.60;;;;;;;13.92;67.59;99539.28;10390402;28;20049;-79
2022/09/25 06:00:32;;;;;;;90.15;37.25;;;;;;;13.90;67.69;99552.56;10396028;28;20059;-79
2022/09/25 06:05:33;;;;;;;53.03;31.27;;;;;;;13.92;67.29;99547.19;10400477;28;20107;-80
2022/09/25 06:10:35;;;;;;;36.03;26.38;;;;;;;14.00;67.02;99556.13;10389071;28;20061;-79
2022/09/25 06:15:40;;;;;;;36.92;26.67;;;;;;;14.06;66.90;99552.16;10391405;28;20056;-79
2022/09/25 06:20:42;;;;;;;60.75;32.90;;;;;;;14.14;67.00;99558.50;10432085;28;20053;-79
2022/09/25 06:25:44;;;;;;;64.03;35.38;;;;;;;14.17;67.23;99555.59;10417399;28;20057;-79
2022/09/25 06:30:46;;;;;;;41.65;26.77;;;;;;;14.27;67.00;99550.44;10398862;28;20998;-79
2022/09/25 06:35:49;;;;;;;46.70;30.40;;;;;;;14.26;67.07;99562.75;10398954;28;20187;-79
2022/09/25 06:40:51;;;;;;;35.03;25.65;;;;;;;14.20;67.02;99563.25;10402427;28;20072;-79
2022/09/25 06:45:53;;;;;;;42.15;28.05;;;;;;;14.24;66.83;99564.69;10417254;28;20144;-79
2022/09/25 06:50:58;;;;;;;32.08;24.80;;;;;;;14.34;66.84;99562.13;10396021;28;20058;-79
2022/09/25 06:56:00;;;;;;;49.42;31.42;;;;;;;14.34;66.95;99562.13;10417913;28;21107;-80
2022/09/25 07:01:02;;;;;;;38.15;25.75;;;;;;;14.38;66.54;99555.66;10398008;28;20487;-79
2022/09/25 07:06:20;;;;;;;33.20;22.85;;;;;;;14.48;66.60;99561.84;10416492;28;20144;-79
2022/09/25 07:11:24;;;;;;;29.40;22.20;;;;;;;14.49;66.32;99559.13;10357358;28;20061;-79
2022/09/25 07:16:27;;;;;;;27.02;20.27;;;;;;;14.54;65.49;99558.75;10377240;28;20057;-79
2022/09/25 07:21:30;;;;;;;25.67;21.45;;;;;;;14.58;65.97;99554.91;10373758;28;20050;-80
2022/09/25 07:26:33;;;;;;;26.30;19.35;;;;;;;14.56;65.48;99557.66;10358380;28;20053;-80
2022/09/25 07:31:38;;;;;;;28.48;20.08;;;;;;;14.69;65.53;99561.91;10354424;28;20058;-79
2022/09/25 07:36:41;;;;;;;23.65;19.35;;;;;;;14.89;64.88;99561.94;10357723;28;20056;-79
2022/09/25 07:41:43;;;;;;;20.75;16.00;;;;;;;14.85;64.10;99565.81;10357291;28;20486;-80
2022/09/25 07:46:44;;;;;;;21.50;16.92;;;;;;;14.85;63.45;99554.41;10356602;28;20502;-80
2022/09/25 07:51:47;;;;;;;23.50;18.80;;;;;;;15.06;63.45;99560.53;10355584;28;20138;-79
2022/09/25 07:56:48;;;;;;;23.33;18.33;;;;;;;15.18;63.00;99559.50;10356763;28;20574;-79
2022/09/25 08:01:51;;;;;;;19.15;16.58;;;;;;;15.14;61.74;99569.44;10367182;28;20053;-79
2022/09/25 08:06:57;;;;;;;20.15;17.50;;;;;;;15.05;61.72;99564.13;10365256;28;20065;-80
2022/09/25 08:11:59;;;;;;;24.95;19.60;;;;;;;15.03;62.12;99566.06;10405726;28;20048;-79
2022/09/25 08:17:01;;;;;;;21.67;17.92;;;;;;;15.08;62.20;99569.16;10420414;28;20510;-79
2022/09/25 08:22:03;;;;;;;27.15;20.42;;;;;;;15.05;62.99;99570.22;10420416;28;20041;-80
2022/09/25 08:27:06;;;;;;;26.88;19.77;;;;;;;15.02;63.19;99578.38;10423055;28;20064;-80
2022/09/25 08:32:08;;;;;;;25.38;19.75;;;;;;;14.93;63.10;99581.78;10403068;28;20053;-79
2022/09/25 08:37:10;;;;;;;22.55;18.17;;;;;;;14.80;63.23;99583.75;10400969;28;20059;-79
2022/09/25 08:42:28;;;;;;;24.35;19.77;;;;;;;14.59;63.77;99577.66;10417778;28;20455;-79
2022/09/25 08:53:20;;;;;;;26.42;21.25;;;;;;;14.31;65.00;99586.88;10416167;28;20072;-79
2022/09/25 08:58:32;;;;;;;23.20;17.05;;;;;;;14.23;65.44;99591.94;10412681;28;20060;-79
2022/09/25 09:03:45;;;;;;;27.00;21.88;;;;;;;14.21;66.05;99585.94;10408216;28;20048;-79
2022/09/25 09:09:10;;;;;;;24.77;20.95;;;;;;;14.30;65.72;99584.38;10414172;28;20063;-82
2022/09/25 09:14:16;;;;;;;26.48;18.92;;;;;;;14.21;65.83;99593.84;10384145;28;20057;-83
2022/09/25 09:19:18;;;;;;;29.98;23.55;;;;;;;14.09;66.32;99588.72;10399058;28;20449;-82
2022/09/25 09:24:33;;;;;;;34.25;25.85;;;;;;;14.01;66.81;99593.75;10386289;28;20700;-83
2022/09/25 09:29:56;;;;;;;33.85;25.95;;;;;;;14.06;67.24;99594.25;10404400;28;20147;-83
2022/09/25 09:35:13;;;;;;;39.72;28.25;;;;;;;14.08;67.26;99593.16;10407055;28;20111;-82
2022/09/25 09:40:31;;;;;;;;;;;;;;;13.64;67.69;99595.78;10411100;28;20057;-82
2022/09/25 09:45:45;;;;;;;29.80;21.45;;;;;;;13.91;67.12;99606.78;10411064;28;19928;-83
2022/09/25 09:50:54;;;;;;;33.50;23.55;;;;;;;14.09;67.67;99600.09;10410866;28;20363;-82
2022/09/25 09:56:13;;;;;;;27.38;17.90;;;;;;;14.21;66.44;99609.63;10419911;28;20414;-82
2022/09/25 10:01:18;;;;;;;17.23;11.52;;;;;;;14.16;65.95;99609.19;10408476;28;20056;-83
2022/09/25 10:06:48;;;;;;;14.90;11.18;;;;;;;14.10;66.69;99612.28;10424222;28;20053;-82
2022/09/25 10:11:59;;;;;;;16.90;9.88;;;;;;;14.20;66.02;99615.84;10404512;28;20111;-82
2022/09/25 10:17:03;;;;;;;16.05;10.52;;;;;;;14.26;65.74;99618.00;10436310;28;20049;-82
2022/09/25 10:22:27;;;;;;;15.30;10.63;;;;;;;14.17;65.07;99613.47;10415983;28;20052;-82
2022/09/25 10:27:48;;;;;;;18.70;11.15;;;;;;;14.14;65.39;99603.19;10400451;28;20415;-82
2022/09/25 10:33:15;;;;;;;12.82;9.32;;;;;;;14.26;64.15;99610.13;10434997;28;20513;-82
2022/09/25 10:38:26;;;;;;;23.42;11.73;;;;;;;14.36;64.99;99607.56;10434248;28;20053;-82
2022/09/25 10:43:28;;;;;;;14.10;10.63;;;;;;;14.50;65.25;99613.44;10415673;28;20049;-82
2022/09/25 10:54:15;;;;;;;19.25;11.23;;;;;;;14.74;63.73;99609.75;10420200;28;20522;-82
2022/09/25 10:59:22;;;;;;;16.40;11.60;;;;;;;14.75;64.20;99606.16;10430803;28;20045;-82
2022/09/25 11:04:28;;;;;;;13.38;8.77;;;;;;;14.99;63.08;99606.78;10433753;28;20053;-82
2022/09/25 11:09:35;;;;;;;15.93;11.80;;;;;;;15.15;63.95;99609.81;10413746;28;20053;-82
2022/09/25 11:14:45;;;;;;;15.65;10.70;;;;;;;15.35;63.49;99599.25;10414457;28;20137;-83
2022/09/25 11:20:12;;;;;;;16.27;11.20;;;;;;;15.59;63.32;99606.09;10416769;28;20053;-83
2022/09/25 11:25:21;;;;;;;15.07;10.23;;;;;;;15.62;62.69;99609.28;10411581;28;20421;-82
2022/09/25 11:30:26;;;;;;;16.05;10.10;;;;;;;15.52;62.75;99608.41;10414295;28;20421;-83
2022/09/25 11:35:55;;;;;;;15.13;10.63;;;;;;;15.41;63.47;99608.44;10416088;28;20049;-83
2022/09/25 11:41:13;;;;;;;16.95;10.40;;;;;;;15.38;63.54;99606.06;10414160;28;20052;-83
2022/09/25 11:46:30;;;;;;;16.88;11.23;;;;;;;15.03;64.37;99601.13;10389988;28;20049;-82
2022/09/25 11:51:35;;;;;;;11.43;5.95;;;;;;;14.86;63.66;99600.88;10417623;28;20069;-82
2022/09/25 11:56:59;;;;;;;13.68;5.00;;;;;;;14.85;62.92;99600.03;10396261;28;20060;-82
2022/09/25 12:02:05;;;;;;;11.80;4.60;;;;;;;15.05;63.41;99596.56;10411229;28;20053;-83
2022/09/25 12:07:13;;;;;;;12.10;4.50;;;;;;;15.09;62.69;99600.63;10429751;28;20111;-83
2022/09/25 12:12:36;;;;;;;9.90;3.70;;;;;;;15.25;62.25;99594.88;10397555;28;20049;-82
2022/09/25 12:18:03;;;;;;;10.95;3.40;;;;;;;15.04;62.31;99599.34;10421538;28;20621;-84
2022/09/25 12:23:19;;;;;;;10.38;3.33;;;;;;;15.05;62.49;99596.56;10392815;28;20045;-82
2022/09/25 12:28:24;;;;;;;10.77;3.15;;;;;;;15.18;61.72;99596.38;10376421;28;20049;-82
2022/09/25 12:33:48;;;;;;;10.40;3.30;;;;;;;15.21;61.86;99598.75;10374163;28;20054;-82
2022/09/25 12:38:56;;;;;;;11.13;3.17;;;;;;;15.34;61.52;99588.84;10382026;28;20563;-84
2022/09/25 12:44:10;;;;;;;14.00;3.63;;;;;;;15.19;60.94;99596.25;10392956;28;20052;-84
2022/09/25 12:49:31;;;;;;;10.15;3.47;;;;;;;15.28;61.72;99592.84;10408823;28;20505;-83
2022/09/25 12:54:59;;;;;;;9.93;3.17;;;;;;;15.33;60.77;99597.72;10399655;28;20419;-84
2022/09/25 13:00:24;;;;;;;10.20;3.17;;;;;;;15.11;59.55;99595.22;10387544;28;20426;-83
2022/09/25 13:05:30;;;;;;;10.23;3.33;;;;;;;15.17;61.41;99592.91;10408823;28;20110;-83
2022/09/25 13:10:56;;;;;;;13.00;3.28;;;;;;;15.02;61.67;99582.84;10413600;28;20549;-83
2022/09/25 13:16:00;;;;;;;12.73;3.80;;;;;;;15.07;62.11;99588.53;10393807;28;20403;-83
2022/09/25 13:21:28;;;;;;;12.32;2.72;;;;;;;14.90;61.40;99583.84;10415829;28;20057;-83
2022/09/25 13:26:47;;;;;;;6.07;2.30;;;;;;;14.88;59.74;99581.31;10393249;28;20065;-82
2022/09/25 13:31:52;;;;;;;9.23;2.55;;;;;;;15.04;59.90;99579.09;10421816;28;20833;-83
2022/09/25 13:37:02;;;;;;;9.80;2.40;;;;;;;15.14;58.69;99577.34;10422559;28;20914;-83
2022/09/25 13:42:24;;;;;;;10.75;2.40;;;;;;;15.26;59.46;99568.44;10405171;28;20045;-83
2022/09/25 13:47:31;;;;;;;9.57;2.30;;;;;;;15.52;58.45;99568.88;10424994;28;20053;-82
2022/09/25 13:52:39;;;;;;;11.13;2.40;;;;;;;15.80;56.97;99568.16;10409778;28;20045;-83
2022/09/25 13:58:00;;;;;;;6.18;2.17;;;;;;;15.96;55.08;99560.56;10406498;28;20623;-83
2022/09/25 14:03:02;;;;;;;13.25;2.90;;;;;;;16.21;57.48;99553.97;10439992;28;20045;-83
2022/09/25 14:41:29;;;;;;;8.57;2.13;;;;;;;16.75;56.41;99513.88;10293641;28;20058;-83
2022/09/25 15:06:44;;;;;;;9.43;2.67;;;;;;;16.34;56.16;99508.84;10390929;28;20422;-83
2022/09/25 15:12:42;;;;;;;10.13;2.15;;;;;;;16.32;57.76;99510.78;10412900;28;20049;-84
2022/09/25 15:18:12;;;;;;;12.30;2.30;;;;;;;16.28;56.58;99512.03;10403587;28;20055;-83
2022/09/25 15:24:09;;;;;;;9.80;2.20;;;;;;;16.10;55.97;99512.69;10420156;28;20110;-83
2022/09/25 15:29:48;;;;;;;15.27;3.60;;;;;;;16.18;56.74;99512.03;10410809;28;20731;-83
2022/09/25 15:35:31;;;;;;;21.13;6.63;;;;;;;16.09;57.45;99505.78;10400975;28;20138;-84
2022/09/25 15:41:23;;;;;;;14.60;4.75;;;;;;;15.95;57.23;99498.25;10286549;28;20141;-83
2022/09/25 15:47:30;;;;;;;19.92;5.38;;;;;;;15.82;57.58;99502.09;10290113;28;20046;-83
2022/09/25 15:53:43;;;;;;;13.20;3.58;;;;;;;15.74;57.70;99505.41;10288459;28;20050;-84
2022/09/25 16:12:27;;;;;;;7.40;2.30;;;;;;;15.90;55.85;99482.00;10374132;28;20061;-83
2022/09/25 16:18:25;;;;;;;;;;;;;;;;;;;;;
2022/09/25 16:24:19;;;;;;;7.93;2.65;;;;;;;15.95;56.64;99474.53;10288241;28;20054;-83
2022/09/25 16:30:07;;;;;;;;;;;;;;;;;;;;;
2022/09/25 16:36:58;;;;;;;10.02;2.55;;;;;;;15.89;56.88;99476.88;10176324;29;20246;-83
2022/09/25 16:42:42;;;;;;;13.20;3.58;;;;;;;15.74;57.80;99480.84;10255485;28;20082;-84
2022/09/25 16:48:58;;;;;;;8.63;2.35;;;;;;;15.45;59.24;99478.09;10287537;28;20109;-84
2022/09/25 16:54:15;;;;;;;9.93;2.40;;;;;;;15.13;59.92;99480.03;10258248;28;20152;-84
2022/09/25 16:59:38;;;;;;;7.65;2.97;;;;;;;14.81;60.98;99471.41;10276008;28;20503;-84
2022/09/25 17:04:56;;;;;;;16.27;4.07;;;;;;;14.46;61.70;99479.56;10271923;28;20046;-83
2022/09/25 17:10:35;;;;;;;12.00;3.40;;;;;;;14.03;62.50;99484.88;10317162;28;20064;-84
2022/09/25 17:15:56;;;;;;;;;;;;;;;13.40;63.68;99484.72;10419205;28;20064;-83
2022/09/25 17:21:21;;;;;;;8.02;3.00;;;;;;;13.39;63.67;99485.69;10418469;28;20279;-84
2022/09/25 17:26:54;;;;;;;9.40;2.95;;;;;;;13.26;63.71;99484.94;10401140;28;20069;-82
2022/09/25 17:32:38;;;;;;;17.23;4.20;;;;;;;13.00;64.54;99492.22;10418129;28;20084;-84
2022/09/25 17:44:00;;;;;;;12.68;4.22;;;;;;;12.62;65.54;99505.59;10417156;28;20053;-84
2022/09/25 17:49:41;;;;;;;17.73;4.63;;;;;;;12.48;65.50;99504.94;10416033;28;20155;-83
2022/09/25 17:54:54;;;;;;;20.17;5.82;;;;;;;12.35;66.05;99509.44;10431035;28;20045;-84
2022/09/25 18:00:33;;;;;;;13.02;5.00;;;;;;;12.24;66.50;99519.84;10394232;28;20057;-84
2022/09/25 18:12:05;;;;;;;16.50;6.80;;;;;;;11.91;67.75;99525.72;10417283;28;20053;-84
2022/09/25 18:17:35;;;;;;;18.25;6.53;;;;;;;11.88;67.85;99532.06;10418784;28;20076;-83
2022/09/25 18:22:54;;;;;;;12.73;5.18;;;;;;;11.84;67.35;99529.75;10423040;28;20099;-83
2022/09/25 18:28:33;;;;;;;10.07;4.60;;;;;;;11.65;67.75;99530.22;10424407;28;20068;-84
2022/09/25 18:33:43;;;;;;;11.45;4.90;;;;;;;11.72;67.52;99531.44;10406951;28;20558;-83
2022/09/25 18:39:20;;;;;;;14.18;5.60;;;;;;;11.69;67.63;99528.22;10422138;28;20045;-84
2022/09/25 18:44:29;;;;;;;14.55;5.97;;;;;;;11.65;67.81;99529.38;10405532;28;20045;-83
2022/09/25 18:56:15;;;;;;;17.63;5.93;;;;;;;11.47;67.94;99535.91;10421758;28;20038;-83
2022/09/25 19:01:50;;;;;;;13.93;5.32;;;;;;;11.44;68.24;99530.88;10403676;28;20541;-84
2022/09/25 19:07:00;;;;;;;10.90;5.53;;;;;;;11.46;67.86;99529.81;10405590;28;20070;-84
2022/09/25 19:12:15;;;;;;;16.87;6.13;;;;;;;11.40;67.70;99526.81;10403528;28;20057;-83
2022/09/25 19:17:19;;;;;;;16.90;6.13;;;;;;;11.30;67.77;99535.28;10403174;28;20483;-83
2022/09/25 19:22:23;;;;;;;14.85;6.00;;;;;;;11.24;67.75;99530.47;10402963;28;20057;-84
2022/09/25 19:27:33;;;;;;;8.57;5.60;;;;;;;11.19;67.73;99543.03;10404939;28;20054;-84
2022/09/25 19:32:43;;;;;;;14.80;5.47;;;;;;;11.15;67.72;99540.75;10422097;28;20458;-84
2022/09/25 19:37:53;;;;;;;15.27;5.63;;;;;;;11.08;67.83;99545.56;10402852;28;20067;-84
2022/09/25 19:43:09;;;;;;;10.18;5.20;;;;;;;11.12;67.85;99541.78;10403053;28;20056;-83
2022/09/25 19:48:18;;;;;;;11.45;5.30;;;;;;;11.19;67.61;99548.25;10403502;28;20053;-84
2022/09/25 19:53:26;;;;;;;11.40;4.22;;;;;;;11.25;67.31;99539.97;10403994;28;20052;-84
2022/09/25 19:58:29;;;;;;;9.98;5.20;;;;;;;11.24;67.39;99546.19;10418392;28;20819;-84
2022/09/25 20:03:31;;;;;;;11.27;5.28;;;;;;;11.28;67.05;99544.19;10435127;28;20068;-84
2022/09/25 20:08:33;;;;;;;15.10;5.35;;;;;;;11.26;67.11;99541.69;10402357;28;20053;-84
2022/09/25 20:13:38;;;;;;;10.57;5.40;;;;;;;11.20;66.98;99534.25;10401557;28;20060;-84
2022/09/25 20:18:40;;;;;;;10.80;5.53;;;;;;;11.19;66.90;99529.13;10400643;28;20053;-83
2022/09/25 20:23:42;;;;;;;10.68;5.25;;;;;;;11.16;66.79;99529.31;10436775;28;20064;-83
2022/09/25 20:28:44;;;;;;;17.52;5.70;;;;;;;11.15;66.51;99525.84;10404768;28;20046;-84
2022/09/25 20:33:46;;;;;;;11.60;4.82;;;;;;;11.07;66.78;99530.78;10395929;28;20064;-83
2022/09/25 20:38:50;;;;;;;9.40;4.45;;;;;;;10.98;66.77;99527.91;10417642;28;20061;-83
2022/09/25 20:43:54;;;;;;;19.17;5.20;;;;;;;10.84;66.91;99525.41;10420789;28;20059;-83
2022/09/25 20:48:57;;;;;;;14.93;6.38;;;;;;;10.67;66.97;99515.22;10434462;28;20414;-84
2022/09/25 20:54:01;;;;;;;12.00;6.22;;;;;;;10.60;67.02;99522.66;10414367;28;20683;-84
2022/09/25 20:59:04;;;;;;;8.48;4.75;;;;;;;10.52;67.21;99508.41;10433688;28;20152;-84
2022/09/25 21:04:06;;;;;;;15.45;5.18;;;;;;;10.46;67.15;99520.13;10430170;28;20041;-84
2022/09/25 21:09:21;;;;;;;12.15;5.75;;;;;;;10.25;67.17;99509.28;10398719;28;20053;-80
2022/09/25 21:14:26;;;;;;;10.57;5.70;;;;;;;10.05;67.67;99507.13;10412476;28;20422;-80
2022/09/25 21:19:27;;;;;;;13.60;6.55;;;;;;;10.07;67.70;99507.00;10429916;28;20060;-80
2022/09/25 21:24:29;;;;;;;11.90;6.07;;;;;;;10.07;67.77;99509.63;10430876;28;20059;-80
2022/09/25 21:29:32;;;;;;;11.13;5.85;;;;;;;9.97;67.96;99511.97;10411589;28;20511;-80
2022/09/25 21:34:34;;;;;;;13.93;5.20;;;;;;;9.82;67.89;99506.88;10396478;28;20041;-79
2022/09/25 21:39:35;;;;;;;13.65;6.15;;;;;;;9.59;68.44;99506.53;10397135;28;20804;-79
2022/09/25 21:44:37;;;;;;;16.40;7.20;;;;;;;9.56;68.47;99505.91;10409744;28;20048;-79
2022/09/25 21:49:39;;;;;;;13.75;5.70;;;;;;;9.57;68.49;99505.78;10401146;28;20049;-80
2022/09/25 21:54:41;;;;;;;11.48;5.95;;;;;;;9.62;68.31;99490.69;10399597;28;20388;-80
2022/09/25 21:59:43;;;;;;;16.75;7.07;;;;;;;9.60;68.04;99500.38;10397989;28;20049;-80
2022/09/25 22:04:46;;;;;;;10.77;4.88;;;;;;;9.56;68.16;99492.84;10413939;28;20053;-80
2022/09/25 22:09:48;;;;;;;9.95;5.10;;;;;;;9.56;68.22;99493.66;10400130;28;20487;-80
2022/09/25 22:14:50;;;;;;;12.15;5.40;;;;;;;9.59;67.94;99493.47;10401358;28;20514;-80
2022/09/25 22:19:52;;;;;;;12.60;5.95;;;;;;;9.49;67.64;99495.00;10435976;28;20045;-79
2022/09/25 22:24:53;;;;;;;8.23;5.00;;;;;;;9.41;67.65;99492.00;10401933;28;20056;-80
2022/09/25 22:29:55;;;;;;;7.90;4.43;;;;;;;9.37;67.89;99500.13;10402217;28;20053;-80
2022/09/25 22:34:57;;;;;;;11.38;4.93;;;;;;;9.39;68.09;99493.88;10416437;28;20048;-79
2022/09/25 22:39:58;;;;;;;10.68;4.82;;;;;;;9.37;67.94;99490.53;10415794;28;20056;-79
2022/09/25 22:45:00;;;;;;;8.77;4.78;;;;;;;9.23;67.65;99493.16;10401206;28;20049;-80
2022/09/25 22:50:04;;;;;;;9.50;5.28;;;;;;;9.14;68.07;99491.09;10433085;28;20056;-79
2022/09/25 22:55:05;;;;;;;14.38;4.80;;;;;;;9.09;68.25;99485.31;10435605;28;20056;-79
2022/09/25 23:00:09;;;;;;;10.20;5.13;;;;;;;9.00;67.90;99483.25;10432474;28;20076;-79
2022/09/25 23:05:11;;;;;;;10.00;5.30;;;;;;;8.95;68.08;99480.09;10422497;28;20056;-79
2022/09/25 23:10:13;;;;;;;11.63;6.82;;;;;;;8.87;68.13;99474.50;10415328;28;20060;-79
2022/09/25 23:15:15;;;;;;;30.05;8.10;;;;;;;8.82;68.29;99476.53;10398764;28;20045;-79
2022/09/25 23:20:17;;;;;;;42.05;11.93;;;;;;;8.77;68.10;99462.97;10400527;28;20689;-79
2022/09/25 23:25:19;;;;;;;23.85;8.50;;;;;;;8.66;68.14;99460.97;10433369;28;20434;-79
2022/09/25 23:30:20;;;;;;;11.77;6.85;;;;;;;8.52;68.53;99462.72;10392347;28;20049;-79
2022/09/25 23:35:22;;;;;;;11.82;6.50;;;;;;;8.49;68.63;99448.09;10399866;28;20398;-78
2022/09/25 23:40:24;;;;;;;7.40;5.60;;;;;;;8.51;68.53;99451.44;10416941;28;20079;-80
2022/09/25 23:45:27;;;;;;;10.80;6.43;;;;;;;8.51;68.29;99445.41;10402069;28;20049;-79
2022/09/25 23:50:28;;;;;;;23.77;8.82;;;;;;;8.37;67.95;99450.56;10399254;28;20110;-79
2022/09/25 23:55:30;;;;;;;10.48;5.50;;;;;;;8.25;68.75;99454.75;10417773;28;20052;-79
